createdAt,value
2019-04-28T00:02:30.918Z,18.80
2019-04-28T00:05:02.510Z,20.37
2019-04-28T00:07:35.447Z,19.10
2019-04-28T00:10:07.581Z,20.63
2019-04-28T00:12:41.147Z,20.17
2019-04-28T00:15:12.431Z,19.50
2019-04-28T00:17:43.980Z,18.60
2019-04-28T00:20:21.384Z,19.80
2019-04-28T00:23:01.720Z,19.77
2019-04-28T00:25:38.941Z,20.27
2019-04-28T00:28:11.543Z,20.47
2019-04-28T00:30:44.317Z,20.00
2019-04-28T00:33:16.995Z,18.83
2019-04-28T00:35:48.577Z,18.80
2019-04-28T00:38:21.589Z,17.60
2019-04-28T00:40:54.271Z,18.30
2019-04-28T00:43:26.790Z,19.47
2019-04-28T00:45:58.457Z,18.20
2019-04-28T00:48:30.905Z,18.80
2019-04-28T00:51:02.580Z,19.03
2019-04-28T00:53:34.132Z,19.70
2019-04-28T00:56:05.726Z,18.47
2019-04-28T00:58:37.296Z,18.83
2019-04-28T01:01:11.794Z,19.27
2019-04-28T01:03:43.258Z,24.60
2019-04-28T01:06:14.842Z,22.80
2019-04-28T01:08:46.392Z,22.07
2019-04-28T01:11:17.956Z,20.50
2019-04-28T01:13:51.610Z,20.30
2019-04-28T01:16:37.193Z,18.53
2019-04-28T01:19:18.013Z,18.53
2019-04-28T01:22:07.407Z,17.27
2019-04-28T01:24:39.879Z,14.77
2019-04-28T01:27:42.406Z,16.37
2019-04-28T01:30:21.646Z,16.57
2019-04-28T01:32:59.689Z,17.43
2019-04-28T01:35:31.398Z,16.20
2019-04-28T01:38:02.861Z,19.63
2019-04-28T01:40:34.457Z,18.30
2019-04-28T01:43:06.102Z,18.80
2019-04-28T01:45:37.732Z,18.10
2019-04-28T01:48:10.124Z,21.00
2019-04-28T01:50:41.730Z,20.87
2019-04-28T01:53:13.299Z,17.90
2019-04-28T01:55:44.837Z,18.43
2019-04-28T01:58:16.382Z,16.10
2019-04-28T02:00:47.921Z,15.20
2019-04-28T02:03:20.587Z,14.97
2019-04-28T02:05:52.329Z,15.20
2019-04-28T02:08:23.847Z,13.93
2019-04-28T02:10:55.505Z,15.73
2019-04-28T02:13:27.133Z,14.30
2019-04-28T02:16:00.022Z,12.87
2019-04-28T02:18:31.765Z,14.80
2019-04-28T02:21:12.021Z,16.23
2019-04-28T02:23:43.522Z,15.60
2019-04-28T02:26:14.989Z,14.10
2019-04-28T02:28:46.632Z,14.67
2019-04-28T02:31:18.086Z,12.40
2019-04-28T02:33:50.498Z,12.17
2019-04-28T02:36:22.845Z,12.03
2019-04-28T02:38:54.467Z,12.10
2019-04-28T02:41:25.984Z,12.57
2019-04-28T02:43:57.452Z,12.23
2019-04-28T02:46:30.796Z,11.80
2019-04-28T02:49:03.017Z,12.03
2019-04-28T02:51:40.850Z,11.40
2019-04-28T02:54:12.478Z,12.33
2019-04-28T02:56:44.027Z,11.37
2019-04-28T02:59:15.508Z,11.00
2019-04-28T03:01:47.147Z,11.50
2019-04-28T03:04:20.250Z,12.87
2019-04-28T03:06:52.065Z,12.50
2019-04-28T03:09:23.675Z,12.17
2019-04-28T03:11:55.358Z,12.07
2019-04-28T03:14:26.861Z,12.40
2019-04-28T03:17:00.845Z,12.30
2019-04-28T03:19:34.141Z,11.90
2019-04-28T03:22:05.790Z,12.53
2019-04-28T03:24:41.305Z,12.83
2019-04-28T03:27:31.976Z,13.27
2019-04-28T03:30:13.283Z,13.63
2019-04-28T03:32:59.084Z,12.00
2019-04-28T03:35:22.923Z,11.77
2019-04-28T03:37:54.460Z,11.50
2019-04-28T03:40:25.894Z,11.63
2019-04-28T03:43:00.335Z,12.37
2019-04-28T03:45:36.563Z,11.90
2019-04-28T03:48:08.078Z,11.27
2019-04-28T03:50:41.363Z,11.20
2019-04-28T03:53:12.751Z,11.50
2019-04-28T03:55:45.807Z,10.53
2019-04-28T03:58:17.456Z,10.67
2019-04-28T04:00:50.638Z,11.13
2019-04-28T04:03:22.197Z,10.00
2019-04-28T04:05:53.675Z,10.10
2019-04-28T04:08:25.173Z,11.33
2019-04-28T04:11:14.551Z,9.60
2019-04-28T04:13:51.456Z,8.23
2019-04-28T04:16:50.297Z,9.23
2019-04-28T04:19:21.479Z,8.17
2019-04-28T04:21:53.140Z,7.83
2019-04-28T04:24:24.740Z,7.90
2019-04-28T04:26:56.195Z,7.90
2019-04-28T04:29:27.702Z,7.70
2019-04-28T04:32:13.480Z,7.23
2019-04-28T04:34:32.344Z,7.43
2019-04-28T04:37:03.905Z,6.57
2019-04-28T04:39:35.622Z,6.17
2019-04-28T04:42:07.200Z,6.80
2019-04-28T04:44:41.386Z,6.37
2019-04-28T04:47:12.088Z,6.30
2019-04-28T04:49:43.574Z,5.90
2019-04-28T04:52:15.038Z,6.30
2019-04-28T04:54:46.534Z,5.63
2019-04-28T04:57:18.091Z,5.60
2019-04-28T04:59:50.133Z,5.80
2019-04-28T05:02:47.728Z,4.87
2019-04-28T05:05:18.195Z,5.20
2019-04-28T05:07:50.763Z,4.30
2019-04-28T05:10:22.405Z,4.60
2019-04-28T05:12:53.996Z,5.37
2019-04-28T05:15:25.499Z,5.23
2019-04-28T05:17:57.107Z,4.97
2019-04-28T05:20:30.259Z,4.97
2019-04-28T05:23:24.623Z,5.30
2019-04-28T05:25:56.274Z,4.93
2019-04-28T05:28:30.645Z,4.73
2019-04-28T05:31:00.983Z,5.23
2019-04-28T05:33:34.012Z,5.77
2019-04-28T05:36:05.975Z,4.63
2019-04-28T05:38:37.545Z,4.37
2019-04-28T05:41:10.514Z,5.27
2019-04-28T05:43:42.191Z,4.50
2019-04-28T05:46:13.869Z,4.77
2019-04-28T05:49:02.695Z,4.17
2019-04-28T05:51:35.392Z,4.90
2019-04-28T05:54:32.178Z,4.20
2019-04-28T05:57:21.117Z,4.63
2019-04-28T06:00:13.123Z,4.10
2019-04-28T06:02:55.593Z,4.30
2019-04-28T06:05:20.059Z,3.80
2019-04-28T06:08:20.224Z,4.33
2019-04-28T06:10:51.665Z,4.77
2019-04-28T06:13:23.158Z,3.83
2019-04-28T06:15:54.760Z,3.47
2019-04-28T06:18:26.246Z,4.07
2019-04-28T06:20:57.770Z,4.00
2019-04-28T06:23:29.272Z,4.50
2019-04-28T06:26:00.824Z,4.50
2019-04-28T06:28:32.458Z,4.83
2019-04-28T06:31:03.977Z,4.03
2019-04-28T06:33:35.642Z,4.03
2019-04-28T06:36:07.212Z,4.77
2019-04-28T06:38:38.770Z,4.73
2019-04-28T06:41:10.546Z,4.00
2019-04-28T06:43:43.592Z,3.83
2019-04-28T06:46:16.150Z,4.17
2019-04-28T06:48:47.687Z,4.40
2019-04-28T06:51:19.186Z,3.87
2019-04-28T06:53:50.636Z,4.23
2019-04-28T06:56:22.202Z,4.30
2019-04-28T06:58:59.088Z,4.10
2019-04-28T07:01:26.917Z,4.20
2019-04-28T07:03:58.414Z,4.30
2019-04-28T07:06:29.918Z,3.83
2019-04-28T07:09:01.404Z,4.17
2019-04-28T07:11:34.498Z,4.37
2019-04-28T07:14:06.253Z,3.50
2019-04-28T07:16:37.738Z,3.63
2019-04-28T07:19:09.565Z,3.77
2019-04-28T07:21:47.057Z,3.93
2019-04-28T07:24:18.693Z,3.80
2019-04-28T07:26:50.216Z,4.10
2019-04-28T07:29:21.735Z,4.37
2019-04-28T07:31:53.265Z,4.57
2019-04-28T07:34:24.800Z,4.40
2019-04-28T07:36:56.301Z,4.07
2019-04-28T07:39:27.880Z,4.37
2019-04-28T07:41:59.374Z,4.60
2019-04-28T07:44:30.866Z,4.60
2019-04-28T07:47:02.326Z,4.30
2019-04-28T07:49:35.012Z,4.67
2019-04-28T07:52:18.858Z,4.47
2019-04-28T07:54:50.416Z,4.90
2019-04-28T07:57:24.073Z,5.53
2019-04-28T07:59:55.171Z,4.83
2019-04-28T08:02:26.700Z,5.17
2019-04-28T08:04:58.332Z,4.90
2019-04-28T08:07:29.848Z,5.30
2019-04-28T08:10:01.385Z,5.00
2019-04-28T08:12:32.921Z,4.83
2019-04-28T08:15:13.674Z,5.50
2019-04-28T08:17:45.274Z,6.33
2019-04-28T08:20:16.972Z,6.40
2019-04-28T08:22:48.623Z,6.83
2019-04-28T08:25:22.559Z,6.07
2019-04-28T08:27:53.337Z,5.93
2019-04-28T08:30:24.913Z,6.00
2019-04-28T08:33:04.080Z,6.10
2019-04-28T08:35:36.945Z,6.43
2019-04-28T08:38:13.492Z,6.67
2019-04-28T08:40:45.074Z,7.00
2019-04-28T08:43:16.548Z,6.27
2019-04-28T08:45:48.135Z,5.70
2019-04-28T08:48:25.039Z,5.97
2019-04-28T08:50:56.544Z,6.33
2019-04-28T08:53:29.318Z,6.13
2019-04-28T08:56:01.045Z,5.77
2019-04-28T08:58:32.643Z,6.27
2019-04-28T09:01:04.114Z,6.70
2019-04-28T09:03:35.831Z,6.90
2019-04-28T09:06:07.371Z,7.37
2019-04-28T09:08:38.993Z,5.93
2019-04-28T09:11:10.738Z,5.43
2019-04-28T09:13:43.767Z,5.73
2019-04-28T09:16:15.541Z,6.73
2019-04-28T09:18:47.214Z,6.63
2019-04-28T09:21:19.064Z,6.30
2019-04-28T09:23:50.667Z,6.13
2019-04-28T09:26:22.150Z,6.33
2019-04-28T09:28:53.655Z,5.97
2019-04-28T09:31:25.817Z,6.33
2019-04-28T09:33:57.395Z,6.47
2019-04-28T09:36:28.903Z,6.60
2019-04-28T09:39:02.010Z,6.53
2019-04-28T09:41:39.030Z,6.40
2019-04-28T09:44:19.887Z,6.27
2019-04-28T09:46:51.590Z,5.17
2019-04-28T09:49:23.185Z,5.80
2019-04-28T09:51:54.716Z,5.60
2019-04-28T09:54:26.213Z,6.20
2019-04-28T09:56:57.780Z,5.27
2019-04-28T09:59:29.306Z,6.00
2019-04-28T10:02:00.867Z,4.90
2019-04-28T10:04:41.378Z,6.07
2019-04-28T10:07:05.560Z,6.07
2019-04-28T10:09:37.162Z,5.17
2019-04-28T10:12:08.799Z,4.97
2019-04-28T10:14:40.525Z,5.50
2019-04-28T10:17:12.403Z,5.87
2019-04-28T10:19:43.967Z,4.80
2019-04-28T10:22:15.503Z,5.20
2019-04-28T10:24:47.526Z,6.37
2019-04-28T10:27:19.072Z,4.97
2019-04-28T10:29:50.644Z,4.97
2019-04-28T10:32:23.775Z,4.93
2019-04-28T10:34:58.145Z,4.93
2019-04-28T10:37:29.816Z,6.37
2019-04-28T10:40:09.479Z,5.73
2019-04-28T10:42:41.211Z,4.43
2019-04-28T10:45:16.361Z,5.23
2019-04-28T10:47:48.174Z,5.60
2019-04-28T10:50:19.916Z,5.50
2019-04-28T10:52:52.028Z,4.97
2019-04-28T10:55:24.151Z,5.63
2019-04-28T10:57:55.672Z,5.57
2019-04-28T11:00:29.349Z,5.03
2019-04-28T11:03:00.855Z,5.60
2019-04-28T11:05:38.513Z,5.63
2019-04-28T11:08:17.819Z,4.57
2019-04-28T11:10:49.395Z,5.83
2019-04-28T11:13:21.157Z,4.03
2019-04-28T11:15:52.659Z,5.20
2019-04-28T11:18:24.335Z,4.83
2019-04-28T11:20:55.817Z,5.60
2019-04-28T11:23:27.526Z,5.10
2019-04-28T11:25:59.077Z,5.20
2019-04-28T11:28:30.609Z,4.87
2019-04-28T11:31:02.108Z,4.77
2019-04-28T11:33:59.927Z,4.80
2019-04-28T11:36:31.717Z,5.07
2019-04-28T11:39:04.801Z,4.27
2019-04-28T11:41:37.967Z,4.33
2019-04-28T11:44:09.515Z,4.80
2019-04-28T11:46:41.014Z,5.20
2019-04-28T11:49:13.294Z,4.80
2019-04-28T11:51:44.801Z,4.97
2019-04-28T11:54:18.543Z,5.13
2019-04-28T11:56:50.099Z,4.73
2019-04-28T11:59:21.617Z,5.53
2019-04-28T12:01:53.242Z,5.10
2019-04-28T12:04:24.832Z,5.30
2019-04-28T12:06:56.436Z,5.53
2019-04-28T12:09:42.121Z,4.90
2019-04-28T12:12:41.391Z,5.17
2019-04-28T12:15:38.283Z,4.70
2019-04-28T12:18:27.733Z,5.13
2019-04-28T12:20:59.133Z,4.93
2019-04-28T12:23:30.671Z,4.87
2019-04-28T12:26:02.175Z,5.23
2019-04-28T12:28:33.773Z,5.43
2019-04-28T12:31:05.445Z,5.67
2019-04-28T12:33:37.017Z,5.33
2019-04-28T12:36:10.099Z,5.20
2019-04-28T12:38:41.705Z,4.80
2019-04-28T12:41:13.363Z,4.47
2019-04-28T12:43:46.014Z,4.53
2019-04-28T12:46:17.594Z,4.80
2019-04-28T12:48:52.763Z,4.43
2019-04-28T12:51:24.235Z,4.27
2019-04-28T12:53:59.766Z,4.67
2019-04-28T12:56:34.760Z,4.03
2019-04-28T12:59:13.451Z,4.67
2019-04-28T13:01:52.103Z,3.73
2019-04-28T13:04:37.453Z,4.30
2019-04-28T13:07:12.279Z,4.50
2019-04-28T13:09:43.815Z,4.10
2019-04-28T13:12:15.345Z,4.50
2019-04-28T13:14:46.886Z,4.00
2019-04-28T13:17:18.404Z,3.93
2019-04-28T13:19:49.846Z,3.77
2019-04-28T13:22:21.420Z,4.23
2019-04-28T13:24:53.006Z,4.87
2019-04-28T13:27:24.479Z,3.63
2019-04-28T13:29:56.067Z,4.13
2019-04-28T13:32:27.581Z,4.53
2019-04-28T13:34:59.092Z,4.47
2019-04-28T13:37:30.587Z,4.53
2019-04-28T13:40:06.093Z,4.67
2019-04-28T13:42:37.634Z,4.13
2019-04-28T13:45:18.725Z,5.03
2019-04-28T13:47:50.372Z,4.83
2019-04-28T13:50:32.862Z,4.93
2019-04-28T13:53:04.740Z,4.17
2019-04-28T13:56:04.839Z,4.13
2019-04-28T13:58:41.540Z,4.13
2019-04-28T14:01:30.920Z,4.37
2019-04-28T14:04:24.478Z,4.30
2019-04-28T14:06:59.439Z,4.70
2019-04-28T14:09:30.946Z,4.53
2019-04-28T14:12:02.416Z,4.37
2019-04-28T14:14:34.018Z,4.73
2019-04-28T14:17:05.762Z,5.00
2019-04-28T14:19:37.404Z,4.63
2019-04-28T14:22:09.188Z,5.13
2019-04-28T14:24:40.739Z,4.23
2019-04-28T14:27:12.393Z,4.40
2019-04-28T14:29:43.898Z,4.10
2019-04-28T14:32:15.361Z,5.10
2019-04-28T14:34:47.031Z,4.80
2019-04-28T14:37:20.097Z,4.70
2019-04-28T14:39:51.594Z,4.90
2019-04-28T14:42:23.185Z,4.37
2019-04-28T14:44:54.680Z,3.83
2019-04-28T14:47:29.366Z,4.27
2019-04-28T14:50:03.040Z,4.37
2019-04-28T14:52:35.607Z,3.60
2019-04-28T14:55:07.749Z,4.33
2019-04-28T14:57:39.353Z,4.53
2019-04-28T15:00:13.262Z,4.60
2019-04-28T15:03:01.953Z,4.40
2019-04-28T15:05:55.728Z,5.00
2019-04-28T15:08:46.249Z,4.77
2019-04-28T15:11:42.940Z,5.00
2019-04-28T15:14:14.523Z,5.17
2019-04-28T15:16:46.091Z,4.30
2019-04-28T15:19:17.678Z,4.20
2019-04-28T15:21:54.669Z,4.47
2019-04-28T15:24:26.297Z,4.57
2019-04-28T15:26:57.873Z,4.47
2019-04-28T15:29:29.394Z,5.57
2019-04-28T15:32:05.481Z,5.33
2019-04-28T15:34:37.003Z,4.67
2019-04-28T15:37:09.913Z,5.07
2019-04-28T15:39:41.687Z,5.47
2019-04-28T15:42:13.255Z,5.47
2019-04-28T15:44:44.815Z,5.03
2019-04-28T15:47:16.443Z,5.00
2019-04-28T15:49:48.051Z,5.43
2019-04-28T15:52:19.579Z,4.60
2019-04-28T15:54:51.159Z,3.70
2019-04-28T15:57:22.822Z,3.73
2019-04-28T15:59:54.419Z,3.87
2019-04-28T16:02:25.909Z,4.13
2019-04-28T16:04:57.481Z,4.00
2019-04-28T16:07:29.113Z,4.10
2019-04-28T16:10:00.665Z,3.93
2019-04-28T16:12:32.317Z,4.00
2019-04-28T16:15:07.249Z,4.43
2019-04-28T16:17:37.845Z,4.17
2019-04-28T16:20:11.226Z,4.13
2019-04-28T16:22:43.430Z,3.90
2019-04-28T16:25:16.055Z,3.93
2019-04-28T16:27:49.430Z,4.30
2019-04-28T16:30:22.111Z,4.83
2019-04-28T16:32:54.965Z,4.27
2019-04-28T16:35:26.415Z,4.13
2019-04-28T16:37:57.983Z,4.77
2019-04-28T16:40:37.939Z,5.10
2019-04-28T16:43:14.812Z,5.10
2019-04-28T16:45:46.305Z,5.27
2019-04-28T16:48:17.937Z,5.00
2019-04-28T16:50:49.491Z,5.13
2019-04-28T16:53:21.090Z,5.10
2019-04-28T16:56:22.365Z,5.37
2019-04-28T16:59:11.785Z,5.53
2019-04-28T17:01:56.717Z,4.80
2019-04-28T17:04:28.329Z,5.30
2019-04-28T17:06:59.853Z,5.47
2019-04-28T17:09:31.560Z,5.40
2019-04-28T17:12:03.139Z,5.00
2019-04-28T17:14:34.683Z,5.13
2019-04-28T17:17:06.255Z,5.03
2019-04-28T17:19:37.737Z,5.00
2019-04-28T17:22:09.284Z,4.70
2019-04-28T17:24:40.827Z,5.00
2019-04-28T17:27:12.518Z,5.80
2019-04-28T17:29:44.068Z,5.00
2019-04-28T17:32:15.731Z,4.93
2019-04-28T17:34:47.199Z,4.47
2019-04-28T17:37:19.022Z,5.90
2019-04-28T17:39:50.493Z,4.50
2019-04-28T17:42:22.467Z,4.73
2019-04-28T17:44:54.057Z,4.63
2019-04-28T17:47:25.686Z,5.63
2019-04-28T17:49:58.325Z,4.53
2019-04-28T17:52:29.922Z,4.60
2019-04-28T17:55:01.433Z,4.30
2019-04-28T17:57:34.094Z,4.87
2019-04-28T18:00:14.257Z,5.00
2019-04-28T18:03:00.059Z,4.73
2019-04-28T18:05:36.269Z,4.77
2019-04-28T18:08:20.356Z,4.77
2019-04-28T18:10:40.937Z,4.20
2019-04-28T18:13:12.537Z,4.63
2019-04-28T18:16:15.147Z,4.60
2019-04-28T18:18:50.217Z,4.40
2019-04-28T18:21:21.827Z,4.07
2019-04-28T18:23:53.517Z,4.83
2019-04-28T18:26:25.085Z,4.83
2019-04-28T18:28:56.629Z,4.70
2019-04-28T18:31:35.769Z,5.77
2019-04-28T18:34:30.288Z,5.07
2019-04-28T18:37:19.378Z,5.20
2019-04-28T18:40:09.513Z,5.00
2019-04-28T18:43:02.794Z,5.17
2019-04-28T18:45:34.359Z,5.63
2019-04-28T18:48:05.919Z,5.03
2019-04-28T18:50:37.598Z,5.13
2019-04-28T18:53:09.212Z,4.43
2019-04-28T18:55:41.067Z,5.07
2019-04-28T18:58:12.797Z,5.70
2019-04-28T19:00:50.003Z,5.13
2019-04-28T19:03:33.567Z,5.97
2019-04-28T19:06:05.181Z,5.20
2019-04-28T19:08:48.990Z,6.23
2019-04-28T19:11:37.087Z,4.60
2019-04-28T19:14:31.585Z,5.03
2019-04-28T19:17:24.511Z,4.77
2019-04-28T19:19:57.101Z,5.30
2019-04-28T19:22:29.707Z,4.87
2019-04-28T19:25:01.348Z,5.53
2019-04-28T19:27:33.121Z,4.87
2019-04-28T19:30:04.988Z,5.43
2019-04-28T19:32:36.948Z,4.83
2019-04-28T19:35:08.863Z,4.27
2019-04-28T19:37:40.465Z,5.23
2019-04-28T19:40:12.173Z,5.10
2019-04-28T19:42:43.823Z,4.70
2019-04-28T19:45:17.425Z,5.80
2019-04-28T19:47:49.099Z,5.20
2019-04-28T19:50:26.087Z,4.80
2019-04-28T19:52:57.572Z,5.00
2019-04-28T19:55:33.240Z,4.53
2019-04-28T19:58:26.873Z,4.80
2019-04-28T20:01:01.235Z,6.10
2019-04-28T20:03:34.119Z,5.27
2019-04-28T20:06:05.635Z,4.83
2019-04-28T20:08:37.165Z,4.70
2019-04-28T20:11:08.645Z,4.67
2019-04-28T20:13:40.110Z,4.87
2019-04-28T20:16:11.764Z,5.47
2019-04-28T20:18:43.438Z,5.30
2019-04-28T20:21:15.298Z,4.93
2019-04-28T20:23:46.794Z,5.30
2019-04-28T20:26:18.346Z,5.60
2019-04-28T20:28:49.990Z,5.50
2019-04-28T20:31:21.607Z,4.60
2019-04-28T20:33:53.302Z,5.47
2019-04-28T20:36:32.925Z,5.77
2019-04-28T20:39:10.201Z,5.57
2019-04-28T20:41:43.290Z,6.20
2019-04-28T20:44:14.820Z,6.87
2019-04-28T20:46:46.337Z,6.53
2019-04-28T20:49:17.868Z,6.73
2019-04-28T20:51:49.404Z,7.10
2019-04-28T20:54:20.877Z,6.30
2019-04-28T20:56:52.649Z,6.97
2019-04-28T20:59:24.211Z,7.70
2019-04-28T21:01:55.734Z,7.00
2019-04-28T21:04:27.493Z,6.47
2019-04-28T21:06:59.016Z,6.93
2019-04-28T21:09:30.632Z,7.33
2019-04-28T21:12:02.174Z,7.10
2019-04-28T21:14:33.774Z,6.07
2019-04-28T21:17:05.326Z,6.17
2019-04-28T21:19:37.065Z,7.00
2019-04-28T21:22:08.576Z,6.90
2019-04-28T21:24:40.248Z,7.70
2019-04-28T21:27:11.876Z,6.80
2019-04-28T21:29:43.463Z,6.93
2019-04-28T21:32:15.205Z,6.47
2019-04-28T21:34:46.790Z,6.57
2019-04-28T21:37:18.624Z,6.93
2019-04-28T21:39:50.378Z,8.07
2019-04-28T21:42:24.340Z,6.77
2019-04-28T21:45:17.894Z,6.87
2019-04-28T21:47:49.498Z,7.53
2019-04-28T21:50:21.098Z,7.13
2019-04-28T21:52:52.848Z,6.87
2019-04-28T21:55:24.451Z,7.53
2019-04-28T21:57:55.934Z,6.73
2019-04-28T22:00:34.234Z,7.50
2019-04-28T22:03:23.478Z,7.30
2019-04-28T22:05:55.010Z,7.83
2019-04-28T22:08:26.520Z,7.20
2019-04-28T22:10:57.976Z,6.97
2019-04-28T22:13:29.470Z,7.17
2019-04-28T22:16:01.052Z,7.40
2019-04-28T22:18:32.591Z,7.93
2019-04-28T22:21:04.071Z,7.17
2019-04-28T22:23:46.558Z,7.67
2019-04-28T22:26:46.235Z,8.50
2019-04-28T22:29:17.716Z,6.97
2019-04-28T22:31:49.334Z,7.07
2019-04-28T22:34:20.830Z,7.47
2019-04-28T22:36:52.338Z,6.60
2019-04-28T22:39:23.798Z,7.70
2019-04-28T22:41:55.358Z,6.83
2019-04-28T22:44:26.882Z,7.80
2019-04-28T22:46:58.388Z,6.63
2019-04-28T22:49:29.900Z,7.90
2019-04-28T22:52:01.372Z,6.50
2019-04-28T22:55:00.686Z,7.07
2019-04-28T22:57:51.469Z,7.73
2019-04-28T23:00:41.598Z,6.73
2019-04-28T23:03:18.806Z,7.03
2019-04-28T23:05:50.359Z,6.93
2019-04-28T23:08:21.933Z,6.93
2019-04-28T23:10:53.660Z,7.50
2019-04-28T23:13:25.198Z,7.90
2019-04-28T23:15:56.738Z,7.30
2019-04-28T23:18:28.412Z,7.40
2019-04-28T23:21:03.130Z,7.23
2019-04-28T23:23:34.614Z,8.30
2019-04-28T23:26:06.207Z,7.00
2019-04-28T23:28:38.390Z,7.17
2019-04-28T23:31:09.890Z,7.33
2019-04-28T23:33:41.544Z,7.80
2019-04-28T23:36:13.135Z,9.17
2019-04-28T23:38:44.702Z,7.13
2019-04-28T23:41:30.192Z,6.77
2019-04-28T23:44:01.658Z,7.10
2019-04-28T23:46:50.989Z,6.30
2019-04-28T23:49:23.322Z,6.17
2019-04-28T23:52:16.418Z,7.03
2019-04-28T23:54:49.832Z,6.23
2019-04-28T23:57:21.315Z,6.33
2019-04-28T23:59:52.922Z,5.67
